sensor_id;sensor_type;location;lat;lon;timestamp;P1;durP1;ratioP1;P2;durP2;ratioP2
20122;SDS011;10222;50.848;4.336;2022-12-07T00:01:11;11.47;;;4.97;;
20122;SDS011;10222;50.848;4.336;2022-12-07T00:03:37;6.33;;;4.70;;
20122;SDS011;10222;50.848;4.336;2022-12-07T00:06:05;11.03;;;5.47;;
20122;SDS011;10222;50.848;4.336;2022-12-07T00:08:33;7.47;;;4.77;;
20122;SDS011;10222;50.848;4.336;2022-12-07T00:11:04;8.87;;;5.47;;
20122;SDS011;10222;50.848;4.336;2022-12-07T00:13:32;7.23;;;4.57;;
20122;SDS011;10222;50.848;4.336;2022-12-07T00:16:06;13.63;;;6.00;;
20122;SDS011;10222;50.848;4.336;2022-12-07T00:18:32;8.97;;;5.57;;
20122;SDS011;10222;50.848;4.336;2022-12-07T00:20:59;8.63;;;5.37;;
20122;SDS011;10222;50.848;4.336;2022-12-07T00:23:26;10.47;;;4.97;;
20122;SDS011;10222;50.848;4.336;2022-12-07T00:25:52;8.23;;;5.17;;
20122;SDS011;10222;50.848;4.336;2022-12-07T00:28:18;9.43;;;4.77;;
20122;SDS011;10222;50.848;4.336;2022-12-07T00:30:44;9.80;;;4.80;;
20122;SDS011;10222;50.848;4.336;2022-12-07T00:33:10;8.53;;;4.77;;
20122;SDS011;10222;50.848;4.336;2022-12-07T00:35:39;9.30;;;5.10;;
20122;SDS011;10222;50.848;4.336;2022-12-07T00:38:05;9.23;;;5.83;;
20122;SDS011;10222;50.848;4.336;2022-12-07T00:40:32;7.93;;;5.17;;
20122;SDS011;10222;50.848;4.336;2022-12-07T00:42:58;11.17;;;5.50;;
20122;SDS011;10222;50.848;4.336;2022-12-07T00:45:24;8.63;;;5.10;;
20122;SDS011;10222;50.848;4.336;2022-12-07T00:47:50;14.67;;;5.57;;
20122;SDS011;10222;50.848;4.336;2022-12-07T00:50:16;8.30;;;5.07;;
20122;SDS011;10222;50.848;4.336;2022-12-07T00:52:42;9.67;;;5.50;;
20122;SDS011;10222;50.848;4.336;2022-12-07T00:55:08;9.37;;;5.37;;
20122;SDS011;10222;50.848;4.336;2022-12-07T00:57:34;10.30;;;5.80;;
20122;SDS011;10222;50.848;4.336;2022-12-07T01:00:00;9.03;;;5.03;;
20122;SDS011;10222;50.848;4.336;2022-12-07T01:02:27;9.27;;;5.43;;
20122;SDS011;10222;50.848;4.336;2022-12-07T01:04:54;9.73;;;5.23;;
20122;SDS011;10222;50.848;4.336;2022-12-07T01:07:20;9.63;;;5.97;;
20122;SDS011;10222;50.848;4.336;2022-12-07T01:09:47;13.17;;;5.80;;
20122;SDS011;10222;50.848;4.336;2022-12-07T01:12:13;9.07;;;5.03;;
20122;SDS011;10222;50.848;4.336;2022-12-07T01:14:41;7.83;;;4.77;;
20122;SDS011;10222;50.848;4.336;2022-12-07T01:17:07;9.43;;;5.87;;
20122;SDS011;10222;50.848;4.336;2022-12-07T01:19:33;9.70;;;5.67;;
20122;SDS011;10222;50.848;4.336;2022-12-07T01:21:59;9.33;;;4.90;;
20122;SDS011;10222;50.848;4.336;2022-12-07T01:24:25;9.03;;;5.40;;
20122;SDS011;10222;50.848;4.336;2022-12-07T01:26:53;12.60;;;5.70;;
20122;SDS011;10222;50.848;4.336;2022-12-07T01:29:19;9.37;;;5.40;;
20122;SDS011;10222;50.848;4.336;2022-12-07T01:31:48;9.87;;;5.33;;
20122;SDS011;10222;50.848;4.336;2022-12-07T01:34:14;10.07;;;5.10;;
20122;SDS011;10222;50.848;4.336;2022-12-07T01:36:40;11.20;;;4.77;;
20122;SDS011;10222;50.848;4.336;2022-12-07T01:39:06;9.93;;;5.30;;
20122;SDS011;10222;50.848;4.336;2022-12-07T01:41:34;9.73;;;5.03;;
20122;SDS011;10222;50.848;4.336;2022-12-07T01:44:15;10.07;;;5.07;;
20122;SDS011;10222;50.848;4.336;2022-12-07T01:46:43;7.90;;;4.93;;
20122;SDS011;10222;50.848;4.336;2022-12-07T01:49:23;10.80;;;5.47;;
20122;SDS011;10222;50.848;4.336;2022-12-07T01:51:51;9.10;;;5.80;;
20122;SDS011;10222;50.848;4.336;2022-12-07T01:54:18;9.47;;;5.77;;
20122;SDS011;10222;50.848;4.336;2022-12-07T01:56:48;10.53;;;5.47;;
20122;SDS011;10222;50.848;4.336;2022-12-07T01:59:15;8.50;;;5.00;;
20122;SDS011;10222;50.848;4.336;2022-12-07T02:01:42;10.90;;;6.13;;
20122;SDS011;10222;50.848;4.336;2022-12-07T02:04:08;12.27;;;5.93;;
20122;SDS011;10222;50.848;4.336;2022-12-07T02:06:34;11.63;;;5.73;;
20122;SDS011;10222;50.848;4.336;2022-12-07T02:09:00;10.33;;;5.83;;
20122;SDS011;10222;50.848;4.336;2022-12-07T02:11:26;11.70;;;5.57;;
20122;SDS011;10222;50.848;4.336;2022-12-07T02:13:52;9.67;;;5.00;;
20122;SDS011;10222;50.848;4.336;2022-12-07T02:26:44;8.90;;;4.90;;
20122;SDS011;10222;50.848;4.336;2022-12-07T02:31:46;8.70;;;5.13;;
20122;SDS011;10222;50.848;4.336;2022-12-07T02:34:36;8.97;;;5.07;;
20122;SDS011;10222;50.848;4.336;2022-12-07T02:37:09;12.17;;;5.23;;
20122;SDS011;10222;50.848;4.336;2022-12-07T02:39:54;8.97;;;5.20;;
20122;SDS011;10222;50.848;4.336;2022-12-07T02:42:24;7.60;;;4.70;;
20122;SDS011;10222;50.848;4.336;2022-12-07T02:44:50;8.43;;;5.33;;
20122;SDS011;10222;50.848;4.336;2022-12-07T02:47:17;12.87;;;5.50;;
20122;SDS011;10222;50.848;4.336;2022-12-07T02:49:45;7.53;;;4.87;;
20122;SDS011;10222;50.848;4.336;2022-12-07T02:52:11;9.73;;;5.00;;
20122;SDS011;10222;50.848;4.336;2022-12-07T02:54:37;11.13;;;5.83;;
20122;SDS011;10222;50.848;4.336;2022-12-07T03:10:08;11.07;;;5.87;;
20122;SDS011;10222;50.848;4.336;2022-12-07T03:15:14;6.33;;;3.93;;
20122;SDS011;10222;50.848;4.336;2022-12-07T03:17:42;7.37;;;4.67;;
20122;SDS011;10222;50.848;4.336;2022-12-07T03:20:11;7.27;;;4.40;;
20122;SDS011;10222;50.848;4.336;2022-12-07T03:22:38;8.37;;;4.37;;
20122;SDS011;10222;50.848;4.336;2022-12-07T03:25:09;7.43;;;4.17;;
20122;SDS011;10222;50.848;4.336;2022-12-07T03:30:19;10.83;;;4.70;;
20122;SDS011;10222;50.848;4.336;2022-12-07T03:32:49;10.77;;;4.73;;
20122;SDS011;10222;50.848;4.336;2022-12-07T03:37:52;7.63;;;4.67;;
20122;SDS011;10222;50.848;4.336;2022-12-07T03:40:30;7.57;;;4.63;;
20122;SDS011;10222;50.848;4.336;2022-12-07T03:42:58;7.40;;;4.57;;
20122;SDS011;10222;50.848;4.336;2022-12-07T03:45:29;6.60;;;3.80;;
20122;SDS011;10222;50.848;4.336;2022-12-07T03:48:41;11.40;;;4.60;;
20122;SDS011;10222;50.848;4.336;2022-12-07T03:50:59;7.20;;;3.87;;
20122;SDS011;10222;50.848;4.336;2022-12-07T03:56:10;8.13;;;3.90;;
20122;SDS011;10222;50.848;4.336;2022-12-07T03:58:37;12.83;;;4.83;;
20122;SDS011;10222;50.848;4.336;2022-12-07T04:01:04;9.13;;;4.57;;
20122;SDS011;10222;50.848;4.336;2022-12-07T04:03:30;6.40;;;4.77;;
20122;SDS011;10222;50.848;4.336;2022-12-07T04:05:56;6.00;;;4.30;;
20122;SDS011;10222;50.848;4.336;2022-12-07T04:08:23;8.07;;;4.53;;
20122;SDS011;10222;50.848;4.336;2022-12-07T04:10:50;7.03;;;4.07;;
20122;SDS011;10222;50.848;4.336;2022-12-07T04:13:17;5.80;;;4.00;;
20122;SDS011;10222;50.848;4.336;2022-12-07T04:15:43;9.53;;;4.77;;
20122;SDS011;10222;50.848;4.336;2022-12-07T04:18:09;10.93;;;4.20;;
20122;SDS011;10222;50.848;4.336;2022-12-07T04:20:35;5.87;;;4.23;;
20122;SDS011;10222;50.848;4.336;2022-12-07T04:23:01;8.13;;;4.83;;
20122;SDS011;10222;50.848;4.336;2022-12-07T04:25:28;6.87;;;4.27;;
20122;SDS011;10222;50.848;4.336;2022-12-07T04:27:54;6.77;;;4.03;;
20122;SDS011;10222;50.848;4.336;2022-12-07T04:30:20;6.00;;;3.80;;
20122;SDS011;10222;50.848;4.336;2022-12-07T04:32:46;7.37;;;4.47;;
20122;SDS011;10222;50.848;4.336;2022-12-07T04:35:12;6.87;;;4.47;;
20122;SDS011;10222;50.848;4.336;2022-12-07T04:37:38;9.20;;;5.43;;
20122;SDS011;10222;50.848;4.336;2022-12-07T04:40:05;11.13;;;4.43;;
20122;SDS011;10222;50.848;4.336;2022-12-07T04:42:33;5.73;;;3.53;;
20122;SDS011;10222;50.848;4.336;2022-12-07T04:44:59;11.67;;;4.77;;
20122;SDS011;10222;50.848;4.336;2022-12-07T04:47:25;8.83;;;5.07;;
20122;SDS011;10222;50.848;4.336;2022-12-07T04:49:51;6.77;;;4.63;;
20122;SDS011;10222;50.848;4.336;2022-12-07T04:52:17;7.27;;;4.20;;
20122;SDS011;10222;50.848;4.336;2022-12-07T04:54:43;7.53;;;4.50;;
20122;SDS011;10222;50.848;4.336;2022-12-07T04:57:09;7.40;;;4.73;;
20122;SDS011;10222;50.848;4.336;2022-12-07T04:59:35;9.43;;;4.90;;
20122;SDS011;10222;50.848;4.336;2022-12-07T05:02:01;11.77;;;4.10;;
20122;SDS011;10222;50.848;4.336;2022-12-07T05:04:27;6.20;;;4.57;;
20122;SDS011;10222;50.848;4.336;2022-12-07T05:06:54;9.73;;;4.53;;
20122;SDS011;10222;50.848;4.336;2022-12-07T05:09:21;7.57;;;4.07;;
20122;SDS011;10222;50.848;4.336;2022-12-07T05:11:47;6.93;;;3.93;;
20122;SDS011;10222;50.848;4.336;2022-12-07T05:14:17;7.27;;;4.53;;
20122;SDS011;10222;50.848;4.336;2022-12-07T05:16:46;9.10;;;5.17;;
20122;SDS011;10222;50.848;4.336;2022-12-07T05:19:14;8.43;;;4.40;;
20122;SDS011;10222;50.848;4.336;2022-12-07T05:21:42;9.03;;;4.80;;
20122;SDS011;10222;50.848;4.336;2022-12-07T05:24:10;8.93;;;4.43;;
20122;SDS011;10222;50.848;4.336;2022-12-07T05:26:36;6.50;;;4.60;;
20122;SDS011;10222;50.848;4.336;2022-12-07T05:29:02;9.77;;;4.40;;
20122;SDS011;10222;50.848;4.336;2022-12-07T05:31:28;7.60;;;4.13;;
20122;SDS011;10222;50.848;4.336;2022-12-07T05:33:55;8.10;;;5.23;;
20122;SDS011;10222;50.848;4.336;2022-12-07T05:36:21;6.87;;;4.03;;
20122;SDS011;10222;50.848;4.336;2022-12-07T05:38:48;9.80;;;4.47;;
20122;SDS011;10222;50.848;4.336;2022-12-07T05:41:16;10.00;;;4.60;;
20122;SDS011;10222;50.848;4.336;2022-12-07T05:44:02;8.20;;;4.60;;
20122;SDS011;10222;50.848;4.336;2022-12-07T05:46:30;7.93;;;4.20;;
20122;SDS011;10222;50.848;4.336;2022-12-07T05:48:56;6.10;;;3.50;;
20122;SDS011;10222;50.848;4.336;2022-12-07T05:51:22;6.10;;;4.20;;
20122;SDS011;10222;50.848;4.336;2022-12-07T05:53:48;5.87;;;4.13;;
20122;SDS011;10222;50.848;4.336;2022-12-07T05:56:15;7.20;;;4.33;;
20122;SDS011;10222;50.848;4.336;2022-12-07T05:58:41;7.83;;;4.37;;
20122;SDS011;10222;50.848;4.336;2022-12-07T06:01:26;6.27;;;3.73;;
20122;SDS011;10222;50.848;4.336;2022-12-07T06:03:52;7.07;;;4.87;;
20122;SDS011;10222;50.848;4.336;2022-12-07T06:06:19;7.83;;;4.33;;
20122;SDS011;10222;50.848;4.336;2022-12-07T06:11:14;8.00;;;4.60;;
20122;SDS011;10222;50.848;4.336;2022-12-07T06:16:28;6.57;;;4.30;;
20122;SDS011;10222;50.848;4.336;2022-12-07T06:18:56;7.07;;;4.30;;
20122;SDS011;10222;50.848;4.336;2022-12-07T06:21:25;6.67;;;4.47;;
20122;SDS011;10222;50.848;4.336;2022-12-07T06:26:26;7.00;;;4.23;;
20122;SDS011;10222;50.848;4.336;2022-12-07T06:28:53;7.33;;;4.87;;
20122;SDS011;10222;50.848;4.336;2022-12-07T06:33:49;6.80;;;4.27;;
20122;SDS011;10222;50.848;4.336;2022-12-07T06:36:18;8.20;;;5.17;;
20122;SDS011;10222;50.848;4.336;2022-12-07T06:38:44;8.83;;;4.63;;
20122;SDS011;10222;50.848;4.336;2022-12-07T06:41:10;7.33;;;4.43;;
20122;SDS011;10222;50.848;4.336;2022-12-07T06:43:38;8.00;;;4.27;;
20122;SDS011;10222;50.848;4.336;2022-12-07T06:46:06;8.77;;;5.17;;
20122;SDS011;10222;50.848;4.336;2022-12-07T06:48:32;9.97;;;4.90;;
20122;SDS011;10222;50.848;4.336;2022-12-07T06:50:58;6.20;;;4.57;;
20122;SDS011;10222;50.848;4.336;2022-12-07T06:53:26;6.10;;;3.93;;
20122;SDS011;10222;50.848;4.336;2022-12-07T06:58:22;9.17;;;4.23;;
20122;SDS011;10222;50.848;4.336;2022-12-07T07:00:48;9.07;;;4.47;;
20122;SDS011;10222;50.848;4.336;2022-12-07T07:03:16;7.83;;;4.70;;
20122;SDS011;10222;50.848;4.336;2022-12-07T07:05:43;6.60;;;4.47;;
20122;SDS011;10222;50.848;4.336;2022-12-07T07:08:10;7.13;;;4.13;;
20122;SDS011;10222;50.848;4.336;2022-12-07T07:10:37;7.77;;;4.27;;
20122;SDS011;10222;50.848;4.336;2022-12-07T07:13:03;6.57;;;3.93;;
20122;SDS011;10222;50.848;4.336;2022-12-07T07:15:30;8.53;;;5.37;;
20122;SDS011;10222;50.848;4.336;2022-12-07T07:17:57;6.37;;;3.23;;
20122;SDS011;10222;50.848;4.336;2022-12-07T07:20:25;8.03;;;4.37;;
20122;SDS011;10222;50.848;4.336;2022-12-07T07:22:54;7.67;;;4.50;;
20122;SDS011;10222;50.848;4.336;2022-12-07T07:25:21;8.53;;;5.13;;
20122;SDS011;10222;50.848;4.336;2022-12-07T07:27:47;7.80;;;4.53;;
20122;SDS011;10222;50.848;4.336;2022-12-07T07:30:13;7.20;;;4.23;;
20122;SDS011;10222;50.848;4.336;2022-12-07T07:32:40;7.37;;;4.43;;
20122;SDS011;10222;50.848;4.336;2022-12-07T07:35:06;9.97;;;5.07;;
20122;SDS011;10222;50.848;4.336;2022-12-07T07:37:32;7.47;;;4.63;;
20122;SDS011;10222;50.848;4.336;2022-12-07T07:39:58;8.33;;;5.17;;
20122;SDS011;10222;50.848;4.336;2022-12-07T07:42:24;10.53;;;5.23;;
20122;SDS011;10222;50.848;4.336;2022-12-07T07:44:50;7.33;;;4.60;;
20122;SDS011;10222;50.848;4.336;2022-12-07T07:47:16;9.43;;;4.77;;
20122;SDS011;10222;50.848;4.336;2022-12-07T07:49:42;7.30;;;5.00;;
20122;SDS011;10222;50.848;4.336;2022-12-07T07:52:09;11.27;;;4.87;;
20122;SDS011;10222;50.848;4.336;2022-12-07T07:54:35;10.30;;;5.10;;
20122;SDS011;10222;50.848;4.336;2022-12-07T07:57:01;8.33;;;5.40;;
20122;SDS011;10222;50.848;4.336;2022-12-07T07:59:27;10.37;;;4.83;;
20122;SDS011;10222;50.848;4.336;2022-12-07T08:01:53;10.00;;;5.73;;
20122;SDS011;10222;50.848;4.336;2022-12-07T08:04:19;9.73;;;5.03;;
20122;SDS011;10222;50.848;4.336;2022-12-07T08:06:45;7.90;;;4.60;;
20122;SDS011;10222;50.848;4.336;2022-12-07T08:09:11;11.90;;;5.60;;
20122;SDS011;10222;50.848;4.336;2022-12-07T08:11:37;8.07;;;4.67;;
20122;SDS011;10222;50.848;4.336;2022-12-07T08:14:03;7.00;;;4.40;;
20122;SDS011;10222;50.848;4.336;2022-12-07T08:16:29;11.57;;;5.17;;
20122;SDS011;10222;50.848;4.336;2022-12-07T08:18:55;9.17;;;5.20;;
20122;SDS011;10222;50.848;4.336;2022-12-07T08:21:21;7.53;;;4.67;;
20122;SDS011;10222;50.848;4.336;2022-12-07T08:23:47;7.87;;;3.80;;
20122;SDS011;10222;50.848;4.336;2022-12-07T08:26:14;6.43;;;4.07;;
20122;SDS011;10222;50.848;4.336;2022-12-07T08:28:40;7.60;;;4.47;;
20122;SDS011;10222;50.848;4.336;2022-12-07T08:31:07;8.67;;;5.23;;
20122;SDS011;10222;50.848;4.336;2022-12-07T08:33:34;10.63;;;4.30;;
20122;SDS011;10222;50.848;4.336;2022-12-07T08:36:01;9.10;;;4.97;;
20122;SDS011;10222;50.848;4.336;2022-12-07T08:38:27;13.00;;;4.67;;
20122;SDS011;10222;50.848;4.336;2022-12-07T08:40:53;8.60;;;4.37;;
20122;SDS011;10222;50.848;4.336;2022-12-07T08:43:20;7.50;;;4.77;;
20122;SDS011;10222;50.848;4.336;2022-12-07T08:48:21;7.40;;;4.87;;
20122;SDS011;10222;50.848;4.336;2022-12-07T08:50:49;7.40;;;4.53;;
20122;SDS011;10222;50.848;4.336;2022-12-07T08:53:15;10.20;;;5.03;;
20122;SDS011;10222;50.848;4.336;2022-12-07T08:55:42;7.50;;;4.63;;
20122;SDS011;10222;50.848;4.336;2022-12-07T08:58:09;7.20;;;4.37;;
20122;SDS011;10222;50.848;4.336;2022-12-07T09:00:35;7.30;;;4.47;;
20122;SDS011;10222;50.848;4.336;2022-12-07T09:03:01;11.03;;;5.53;;
20122;SDS011;10222;50.848;4.336;2022-12-07T09:05:27;7.30;;;4.67;;
20122;SDS011;10222;50.848;4.336;2022-12-07T09:07:54;10.60;;;4.53;;
20122;SDS011;10222;50.848;4.336;2022-12-07T09:10:21;9.27;;;4.90;;
20122;SDS011;10222;50.848;4.336;2022-12-07T09:12:47;6.93;;;4.20;;
20122;SDS011;10222;50.848;4.336;2022-12-07T09:15:13;9.33;;;4.33;;
20122;SDS011;10222;50.848;4.336;2022-12-07T09:17:39;6.17;;;4.00;;
20122;SDS011;10222;50.848;4.336;2022-12-07T09:20:05;7.17;;;4.07;;
20122;SDS011;10222;50.848;4.336;2022-12-07T09:22:32;9.73;;;4.23;;
20122;SDS011;10222;50.848;4.336;2022-12-07T09:24:58;9.60;;;4.47;;
20122;SDS011;10222;50.848;4.336;2022-12-07T09:27:24;7.90;;;3.97;;
20122;SDS011;10222;50.848;4.336;2022-12-07T09:29:50;9.63;;;4.63;;
20122;SDS011;10222;50.848;4.336;2022-12-07T09:32:16;10.47;;;4.03;;
20122;SDS011;10222;50.848;4.336;2022-12-07T09:34:46;8.37;;;3.83;;
20122;SDS011;10222;50.848;4.336;2022-12-07T09:37:15;7.73;;;4.47;;
20122;SDS011;10222;50.848;4.336;2022-12-07T09:39:42;5.73;;;3.70;;
20122;SDS011;10222;50.848;4.336;2022-12-07T09:42:08;7.60;;;4.67;;
20122;SDS011;10222;50.848;4.336;2022-12-07T09:44:39;6.10;;;4.27;;
20122;SDS011;10222;50.848;4.336;2022-12-07T09:47:07;10.57;;;4.97;;
20122;SDS011;10222;50.848;4.336;2022-12-07T09:49:36;11.53;;;4.00;;
20122;SDS011;10222;50.848;4.336;2022-12-07T09:54:40;7.73;;;3.80;;
20122;SDS011;10222;50.848;4.336;2022-12-07T09:57:08;6.53;;;3.77;;
20122;SDS011;10222;50.848;4.336;2022-12-07T09:59:37;5.87;;;3.50;;
20122;SDS011;10222;50.848;4.336;2022-12-07T10:04:48;6.13;;;3.77;;
20122;SDS011;10222;50.848;4.336;2022-12-07T10:07:14;6.40;;;3.70;;
20122;SDS011;10222;50.848;4.336;2022-12-07T10:09:40;6.67;;;3.73;;
20122;SDS011;10222;50.848;4.336;2022-12-07T10:14:35;6.13;;;3.60;;
20122;SDS011;10222;50.848;4.336;2022-12-07T10:17:02;6.17;;;3.77;;
20122;SDS011;10222;50.848;4.336;2022-12-07T10:19:48;9.10;;;3.63;;
20122;SDS011;10222;50.848;4.336;2022-12-07T10:22:15;8.47;;;4.23;;
20122;SDS011;10222;50.848;4.336;2022-12-07T10:24:43;7.57;;;3.80;;
20122;SDS011;10222;50.848;4.336;2022-12-07T10:27:33;4.93;;;3.30;;
20122;SDS011;10222;50.848;4.336;2022-12-07T10:29:59;6.80;;;3.37;;
20122;SDS011;10222;50.848;4.336;2022-12-07T10:34:51;7.50;;;2.97;;
20122;SDS011;10222;50.848;4.336;2022-12-07T10:37:41;7.47;;;3.70;;
20122;SDS011;10222;50.848;4.336;2022-12-07T10:40:24;5.10;;;3.17;;
20122;SDS011;10222;50.848;4.336;2022-12-07T10:43:00;5.40;;;3.27;;
20122;SDS011;10222;50.848;4.336;2022-12-07T10:45:27;8.73;;;3.30;;
20122;SDS011;10222;50.848;4.336;2022-12-07T11:21:30;5.63;;;2.83;;
20122;SDS011;10222;50.848;4.336;2022-12-07T11:29:37;2.73;;;1.67;;
20122;SDS011;10222;50.848;4.336;2022-12-07T11:32:23;5.20;;;2.03;;
20122;SDS011;10222;50.848;4.336;2022-12-07T11:37:31;8.93;;;2.27;;
20122;SDS011;10222;50.848;4.336;2022-12-07T11:40:39;2.33;;;1.53;;
20122;SDS011;10222;50.848;4.336;2022-12-07T11:42:58;3.30;;;2.10;;
20122;SDS011;10222;50.848;4.336;2022-12-07T11:45:29;6.17;;;3.43;;
20122;SDS011;10222;50.848;4.336;2022-12-07T11:48:14;4.73;;;2.20;;
20122;SDS011;10222;50.848;4.336;2022-12-07T11:50:45;6.13;;;1.97;;
20122;SDS011;10222;50.848;4.336;2022-12-07T12:00:48;6.03;;;2.17;;
20122;SDS011;10222;50.848;4.336;2022-12-07T12:03:19;3.20;;;1.93;;
20122;SDS011;10222;50.848;4.336;2022-12-07T12:05:47;5.63;;;2.20;;
20122;SDS011;10222;50.848;4.336;2022-12-07T12:08:22;3.90;;;1.93;;
20122;SDS011;10222;50.848;4.336;2022-12-07T12:13:41;8.73;;;2.23;;
20122;SDS011;10222;50.848;4.336;2022-12-07T12:18:57;2.87;;;1.33;;
20122;SDS011;10222;50.848;4.336;2022-12-07T12:21:28;3.33;;;1.80;;
20122;SDS011;10222;50.848;4.336;2022-12-07T12:23:56;2.60;;;1.10;;
20122;SDS011;10222;50.848;4.336;2022-12-07T12:26:25;3.30;;;1.13;;
20122;SDS011;10222;50.848;4.336;2022-12-07T12:33:57;1.03;;;0.80;;
20122;SDS011;10222;50.848;4.336;2022-12-07T12:42:01;3.90;;;1.63;;
20122;SDS011;10222;50.848;4.336;2022-12-07T12:46:44;5.27;;;1.47;;
20122;SDS011;10222;50.848;4.336;2022-12-07T12:57:27;3.30;;;1.20;;
20122;SDS011;10222;50.848;4.336;2022-12-07T12:59:31;2.87;;;1.37;;
20122;SDS011;10222;50.848;4.336;2022-12-07T13:07:08;1.93;;;1.33;;
20122;SDS011;10222;50.848;4.336;2022-12-07T13:09:36;2.27;;;1.10;;
20122;SDS011;10222;50.848;4.336;2022-12-07T13:12:04;1.63;;;1.03;;
20122;SDS011;10222;50.848;4.336;2022-12-07T13:14:51;3.80;;;1.37;;
20122;SDS011;10222;50.848;4.336;2022-12-07T13:19:56;3.03;;;1.53;;
20122;SDS011;10222;50.848;4.336;2022-12-07T13:28:00;6.10;;;2.50;;
20122;SDS011;10222;50.848;4.336;2022-12-07T13:30:27;4.77;;;1.77;;
20122;SDS011;10222;50.848;4.336;2022-12-07T13:32:55;2.97;;;1.30;;
20122;SDS011;10222;50.848;4.336;2022-12-07T13:35:32;1.30;;;1.17;;
20122;SDS011;10222;50.848;4.336;2022-12-07T13:37:58;2.47;;;1.60;;
20122;SDS011;10222;50.848;4.336;2022-12-07T13:40:25;3.63;;;1.10;;
20122;SDS011;10222;50.848;4.336;2022-12-07T13:42:58;2.33;;;1.43;;
20122;SDS011;10222;50.848;4.336;2022-12-07T13:45:33;2.30;;;1.50;;
20122;SDS011;10222;50.848;4.336;2022-12-07T13:50:54;2.13;;;1.40;;
20122;SDS011;10222;50.848;4.336;2022-12-07T13:53:20;2.80;;;1.30;;
20122;SDS011;10222;50.848;4.336;2022-12-07T13:55:46;3.27;;;1.13;;
20122;SDS011;10222;50.848;4.336;2022-12-07T13:58:13;2.23;;;1.20;;
20122;SDS011;10222;50.848;4.336;2022-12-07T14:00:39;4.37;;;1.30;;
20122;SDS011;10222;50.848;4.336;2022-12-07T14:05:38;1.33;;;0.87;;
20122;SDS011;10222;50.848;4.336;2022-12-07T14:08:20;2.73;;;0.93;;
20122;SDS011;10222;50.848;4.336;2022-12-07T14:13:30;2.63;;;1.20;;
20122;SDS011;10222;50.848;4.336;2022-12-07T14:15:57;1.83;;;1.17;;
20122;SDS011;10222;50.848;4.336;2022-12-07T14:18:34;1.30;;;0.90;;
20122;SDS011;10222;50.848;4.336;2022-12-07T14:21:04;1.50;;;0.87;;
20122;SDS011;10222;50.848;4.336;2022-12-07T14:23:30;2.20;;;1.00;;
20122;SDS011;10222;50.848;4.336;2022-12-07T14:28:38;3.17;;;1.60;;
20122;SDS011;10222;50.848;4.336;2022-12-07T14:31:23;3.43;;;1.40;;
20122;SDS011;10222;50.848;4.336;2022-12-07T14:33:50;4.80;;;1.20;;
20122;SDS011;10222;50.848;4.336;2022-12-07T14:36:16;2.10;;;0.90;;
20122;SDS011;10222;50.848;4.336;2022-12-07T14:38:42;2.13;;;1.17;;
20122;SDS011;10222;50.848;4.336;2022-12-07T14:41:23;3.00;;;1.20;;
20122;SDS011;10222;50.848;4.336;2022-12-07T14:44:10;1.57;;;0.73;;
20122;SDS011;10222;50.848;4.336;2022-12-07T14:46:36;2.43;;;0.83;;
20122;SDS011;10222;50.848;4.336;2022-12-07T14:49:02;1.97;;;0.93;;
20122;SDS011;10222;50.848;4.336;2022-12-07T14:51:28;3.07;;;1.43;;
20122;SDS011;10222;50.848;4.336;2022-12-07T14:53:54;4.20;;;1.70;;
20122;SDS011;10222;50.848;4.336;2022-12-07T14:56:21;6.90;;;2.37;;
20122;SDS011;10222;50.848;4.336;2022-12-07T14:58:47;2.57;;;1.30;;
20122;SDS011;10222;50.848;4.336;2022-12-07T15:01:13;1.97;;;1.40;;
20122;SDS011;10222;50.848;4.336;2022-12-07T15:03:39;2.20;;;1.67;;
20122;SDS011;10222;50.848;4.336;2022-12-07T15:06:05;1.90;;;1.20;;
20122;SDS011;10222;50.848;4.336;2022-12-07T15:08:32;4.77;;;1.40;;
20122;SDS011;10222;50.848;4.336;2022-12-07T15:10:58;3.07;;;1.53;;
20122;SDS011;10222;50.848;4.336;2022-12-07T15:13:24;3.20;;;1.70;;
20122;SDS011;10222;50.848;4.336;2022-12-07T15:16:13;4.10;;;1.40;;
20122;SDS011;10222;50.848;4.336;2022-12-07T15:18:39;2.73;;;1.77;;
20122;SDS011;10222;50.848;4.336;2022-12-07T15:21:05;1.40;;;1.07;;
20122;SDS011;10222;50.848;4.336;2022-12-07T15:23:32;3.83;;;1.77;;
20122;SDS011;10222;50.848;4.336;2022-12-07T15:25:58;1.10;;;0.87;;
20122;SDS011;10222;50.848;4.336;2022-12-07T15:28:24;1.33;;;1.00;;
20122;SDS011;10222;50.848;4.336;2022-12-07T15:30:50;3.30;;;1.43;;
20122;SDS011;10222;50.848;4.336;2022-12-07T15:33:16;3.67;;;1.73;;
20122;SDS011;10222;50.848;4.336;2022-12-07T15:35:43;3.13;;;1.53;;
20122;SDS011;10222;50.848;4.336;2022-12-07T15:38:10;1.53;;;1.10;;
20122;SDS011;10222;50.848;4.336;2022-12-07T15:40:36;2.83;;;1.00;;
20122;SDS011;10222;50.848;4.336;2022-12-07T15:43:02;2.03;;;1.30;;
20122;SDS011;10222;50.848;4.336;2022-12-07T15:45:29;2.47;;;1.20;;
20122;SDS011;10222;50.848;4.336;2022-12-07T15:47:55;3.30;;;1.30;;
20122;SDS011;10222;50.848;4.336;2022-12-07T15:50:22;2.27;;;1.43;;
20122;SDS011;10222;50.848;4.336;2022-12-07T15:52:48;2.93;;;1.50;;
20122;SDS011;10222;50.848;4.336;2022-12-07T15:55:14;2.27;;;1.43;;
20122;SDS011;10222;50.848;4.336;2022-12-07T15:57:40;3.77;;;1.87;;
20122;SDS011;10222;50.848;4.336;2022-12-07T16:00:07;2.83;;;1.63;;
20122;SDS011;10222;50.848;4.336;2022-12-07T16:02:33;4.40;;;2.07;;
20122;SDS011;10222;50.848;4.336;2022-12-07T16:04:59;3.57;;;1.80;;
20122;SDS011;10222;50.848;4.336;2022-12-07T16:07:25;5.30;;;1.70;;
20122;SDS011;10222;50.848;4.336;2022-12-07T16:09:51;6.10;;;1.60;;
20122;SDS011;10222;50.848;4.336;2022-12-07T16:12:17;2.10;;;1.43;;
20122;SDS011;10222;50.848;4.336;2022-12-07T16:14:43;2.50;;;1.50;;
20122;SDS011;10222;50.848;4.336;2022-12-07T16:17:09;3.13;;;1.40;;
20122;SDS011;10222;50.848;4.336;2022-12-07T16:19:37;1.83;;;1.20;;
20122;SDS011;10222;50.848;4.336;2022-12-07T16:22:03;4.90;;;1.93;;
20122;SDS011;10222;50.848;4.336;2022-12-07T16:24:30;5.20;;;1.80;;
20122;SDS011;10222;50.848;4.336;2022-12-07T16:26:55;4.33;;;1.67;;
20122;SDS011;10222;50.848;4.336;2022-12-07T16:29:21;4.03;;;2.23;;
20122;SDS011;10222;50.848;4.336;2022-12-07T16:31:48;4.03;;;1.57;;
20122;SDS011;10222;50.848;4.336;2022-12-07T16:34:14;2.30;;;1.70;;
20122;SDS011;10222;50.848;4.336;2022-12-07T16:36:40;4.33;;;1.90;;
20122;SDS011;10222;50.848;4.336;2022-12-07T16:39:06;5.13;;;2.30;;
20122;SDS011;10222;50.848;4.336;2022-12-07T16:41:32;5.80;;;2.10;;
20122;SDS011;10222;50.848;4.336;2022-12-07T16:44:02;7.60;;;2.77;;
20122;SDS011;10222;50.848;4.336;2022-12-07T16:46:28;4.30;;;2.23;;
20122;SDS011;10222;50.848;4.336;2022-12-07T16:48:55;4.00;;;2.27;;
20122;SDS011;10222;50.848;4.336;2022-12-07T16:51:21;5.37;;;2.57;;
20122;SDS011;10222;50.848;4.336;2022-12-07T16:53:47;4.80;;;2.13;;
20122;SDS011;10222;50.848;4.336;2022-12-07T16:56:13;4.63;;;2.20;;
20122;SDS011;10222;50.848;4.336;2022-12-07T16:58:41;4.23;;;2.33;;
20122;SDS011;10222;50.848;4.336;2022-12-07T17:01:14;5.53;;;2.30;;
20122;SDS011;10222;50.848;4.336;2022-12-07T17:03:41;3.23;;;2.50;;
20122;SDS011;10222;50.848;4.336;2022-12-07T17:06:11;3.27;;;2.00;;
20122;SDS011;10222;50.848;4.336;2022-12-07T17:08:38;3.43;;;2.10;;
20122;SDS011;10222;50.848;4.336;2022-12-07T17:11:09;5.37;;;2.40;;
20122;SDS011;10222;50.848;4.336;2022-12-07T17:13:35;3.23;;;1.90;;
20122;SDS011;10222;50.848;4.336;2022-12-07T17:16:19;2.90;;;2.13;;
20122;SDS011;10222;50.848;4.336;2022-12-07T17:18:45;3.53;;;1.80;;
20122;SDS011;10222;50.848;4.336;2022-12-07T17:21:11;3.53;;;1.90;;
20122;SDS011;10222;50.848;4.336;2022-12-07T17:23:37;3.40;;;2.37;;
20122;SDS011;10222;50.848;4.336;2022-12-07T17:26:07;2.40;;;2.00;;
20122;SDS011;10222;50.848;4.336;2022-12-07T17:28:35;4.53;;;2.30;;
20122;SDS011;10222;50.848;4.336;2022-12-07T17:31:04;4.43;;;2.57;;
20122;SDS011;10222;50.848;4.336;2022-12-07T17:33:30;3.93;;;2.60;;